sensor_id;sensor_type;location;lat;lon;timestamp;P1;durP1;ratioP1;P2;durP2;ratioP2
40555;SDS011;26250;45.422;11.100;2023-01-23T09:52:34;2.67;;;1.40;;
40555;SDS011;26250;45.422;11.100;2023-01-23T09:57:42;1.42;;;1.33;;
40555;SDS011;26250;45.422;11.100;2023-01-23T10:00:19;4.40;;;1.30;;
40555;SDS011;26250;45.422;11.100;2023-01-23T10:03:13;1.13;;;1.10;;
40555;SDS011;26250;45.422;11.100;2023-01-23T10:08:18;1.13;;;1.13;;
40555;SDS011;26250;45.422;11.100;2023-01-23T10:24:52;2.58;;;1.38;;
40555;SDS011;26250;45.422;11.100;2023-01-23T10:27:25;1.25;;;1.23;;
40555;SDS011;26250;45.422;11.100;2023-01-23T10:30:00;1.40;;;1.38;;
40555;SDS011;26250;45.422;11.100;2023-01-23T10:32:45;2.65;;;1.10;;
40555;SDS011;26250;45.422;11.100;2023-01-23T10:35:35;1.10;;;1.10;;
40555;SDS011;26250;45.422;11.100;2023-01-23T10:40:51;1.20;;;1.10;;
40555;SDS011;26250;45.422;11.100;2023-01-23T10:43:36;1.35;;;1.20;;
40555;SDS011;26250;45.422;11.100;2023-01-23T10:46:07;1.05;;;1.05;;
40555;SDS011;26250;45.422;11.100;2023-01-23T10:56:32;1.10;;;1.10;;
40555;SDS011;26250;45.422;11.100;2023-01-23T10:59:01;1.00;;;1.00;;
40555;SDS011;26250;45.422;11.100;2023-01-23T11:01:31;1.10;;;1.10;;
40555;SDS011;26250;45.422;11.100;2023-01-23T11:04:18;2.15;;;1.45;;
40555;SDS011;26250;45.422;11.100;2023-01-23T11:06:59;1.33;;;1.20;;
40555;SDS011;26250;45.422;11.100;2023-01-23T11:09:27;1.10;;;1.10;;
40555;SDS011;26250;45.422;11.100;2023-01-23T11:12:05;1.15;;;1.10;;
40555;SDS011;26250;45.422;11.100;2023-01-23T11:14:40;1.38;;;1.15;;
40555;SDS011;26250;45.422;11.100;2023-01-23T11:17:21;0.93;;;0.93;;
40555;SDS011;26250;45.422;11.100;2023-01-23T11:19:51;1.08;;;1.08;;
40555;SDS011;26250;45.422;11.100;2023-01-23T11:22:27;1.00;;;1.00;;
40555;SDS011;26250;45.422;11.100;2023-01-23T11:24:56;1.02;;;1.02;;
40555;SDS011;26250;45.422;11.100;2023-01-23T11:27:28;0.90;;;0.90;;
40555;SDS011;26250;45.422;11.100;2023-01-23T11:32:52;0.90;;;0.90;;
40555;SDS011;26250;45.422;11.100;2023-01-23T11:35:41;1.20;;;1.00;;
40555;SDS011;26250;45.422;11.100;2023-01-23T11:38:16;0.98;;;0.98;;
40555;SDS011;26250;45.422;11.100;2023-01-23T11:40:56;1.52;;;1.42;;
40555;SDS011;26250;45.422;11.100;2023-01-23T11:43:23;1.30;;;1.20;;
40555;SDS011;26250;45.422;11.100;2023-01-23T11:48:42;0.90;;;0.90;;
40555;SDS011;26250;45.422;11.100;2023-01-23T11:54:23;0.90;;;0.90;;
40555;SDS011;26250;45.422;11.100;2023-01-23T12:11:44;0.95;;;0.80;;
40555;SDS011;26250;45.422;11.100;2023-01-23T12:17:52;0.88;;;0.88;;
40555;SDS011;26250;45.422;11.100;2023-01-23T12:21:10;0.98;;;0.90;;
40555;SDS011;26250;45.422;11.100;2023-01-23T12:23:41;0.90;;;0.90;;
40555;SDS011;26250;45.422;11.100;2023-01-23T12:26:16;0.90;;;0.90;;
40555;SDS011;26250;45.422;11.100;2023-01-23T12:34:47;0.95;;;0.95;;
40555;SDS011;26250;45.422;11.100;2023-01-23T12:37:32;0.90;;;0.90;;
40555;SDS011;26250;45.422;11.100;2023-01-23T12:42:56;1.20;;;1.10;;
40555;SDS011;26250;45.422;11.100;2023-01-23T12:45:47;1.10;;;1.10;;
40555;SDS011;26250;45.422;11.100;2023-01-23T12:48:21;0.95;;;0.95;;
40555;SDS011;26250;45.422;11.100;2023-01-23T12:50:59;1.00;;;1.00;;
40555;SDS011;26250;45.422;11.100;2023-01-23T12:53:32;0.90;;;0.90;;
40555;SDS011;26250;45.422;11.100;2023-01-23T12:56:10;1.30;;;0.90;;
40555;SDS011;26250;45.422;11.100;2023-01-23T12:58:47;0.90;;;0.90;;
40555;SDS011;26250;45.422;11.100;2023-01-23T13:12:37;0.80;;;0.80;;
40555;SDS011;26250;45.422;11.100;2023-01-23T13:20:31;1.50;;;1.15;;
40555;SDS011;26250;45.422;11.100;2023-01-23T13:25:49;0.80;;;0.80;;
40555;SDS011;26250;45.422;11.100;2023-01-23T13:28:40;0.88;;;0.88;;
40555;SDS011;26250;45.422;11.100;2023-01-23T13:36:45;1.60;;;0.90;;
40555;SDS011;26250;45.422;11.100;2023-01-23T13:41:48;0.77;;;0.77;;
40555;SDS011;26250;45.422;11.100;2023-01-23T13:50:14;0.93;;;0.90;;
40555;SDS011;26250;45.422;11.100;2023-01-23T13:53:21;1.92;;;1.38;;
40555;SDS011;26250;45.422;11.100;2023-01-23T13:56:23;1.50;;;1.30;;
40555;SDS011;26250;45.422;11.100;2023-01-23T13:59:34;6.53;;;1.00;;
40555;SDS011;26250;45.422;11.100;2023-01-23T14:02:25;2.92;;;0.90;;
40555;SDS011;26250;45.422;11.100;2023-01-23T14:05:32;1.23;;;1.00;;
40555;SDS011;26250;45.422;11.100;2023-01-23T14:08:16;0.80;;;0.80;;
40555;SDS011;26250;45.422;11.100;2023-01-23T14:10:59;1.30;;;1.20;;
40555;SDS011;26250;45.422;11.100;2023-01-23T14:13:51;1.90;;;1.10;;
40555;SDS011;26250;45.422;11.100;2023-01-23T14:16:56;1.23;;;1.13;;
40555;SDS011;26250;45.422;11.100;2023-01-23T14:19:38;0.98;;;0.95;;
40555;SDS011;26250;45.422;11.100;2023-01-23T14:22:36;1.00;;;1.00;;
40555;SDS011;26250;45.422;11.100;2023-01-23T14:25:04;2.15;;;1.10;;
40555;SDS011;26250;45.422;11.100;2023-01-23T14:27:41;1.10;;;1.00;;
40555;SDS011;26250;45.422;11.100;2023-01-23T14:30:20;1.25;;;1.00;;
40555;SDS011;26250;45.422;11.100;2023-01-23T14:32:50;1.05;;;0.95;;
40555;SDS011;26250;45.422;11.100;2023-01-23T14:35:24;0.90;;;0.90;;
40555;SDS011;26250;45.422;11.100;2023-01-23T14:37:55;9.63;;;1.00;;
40555;SDS011;26250;45.422;11.100;2023-01-23T14:40:24;1.10;;;0.90;;
40555;SDS011;26250;45.422;11.100;2023-01-23T14:42:58;1.15;;;1.00;;
40555;SDS011;26250;45.422;11.100;2023-01-23T14:45:28;1.50;;;0.90;;
40555;SDS011;26250;45.422;11.100;2023-01-23T14:47:58;0.90;;;0.90;;
40555;SDS011;26250;45.422;11.100;2023-01-23T14:50:33;0.90;;;0.90;;
40555;SDS011;26250;45.422;11.100;2023-01-23T14:53:02;1.17;;;1.13;;
40555;SDS011;26250;45.422;11.100;2023-01-23T14:55:38;0.90;;;0.90;;
40555;SDS011;26250;45.422;11.100;2023-01-23T14:58:12;0.93;;;0.90;;
40555;SDS011;26250;45.422;11.100;2023-01-23T15:00:46;1.30;;;1.20;;
40555;SDS011;26250;45.422;11.100;2023-01-23T15:03:33;1.20;;;1.10;;
40555;SDS011;26250;45.422;11.100;2023-01-23T15:06:00;1.13;;;1.02;;
40555;SDS011;26250;45.422;11.100;2023-01-23T15:08:32;1.08;;;1.02;;
40555;SDS011;26250;45.422;11.100;2023-01-23T15:11:01;1.48;;;0.80;;
40555;SDS011;26250;45.422;11.100;2023-01-23T15:13:39;1.10;;;1.00;;
40555;SDS011;26250;45.422;11.100;2023-01-23T15:16:13;0.80;;;0.80;;
40555;SDS011;26250;45.422;11.100;2023-01-23T15:18:50;1.20;;;1.10;;
40555;SDS011;26250;45.422;11.100;2023-01-23T15:21:39;1.02;;;1.00;;
40555;SDS011;26250;45.422;11.100;2023-01-23T15:26:59;1.10;;;1.10;;
40555;SDS011;26250;45.422;11.100;2023-01-23T15:29:29;1.30;;;1.20;;
40555;SDS011;26250;45.422;11.100;2023-01-23T15:31:56;0.93;;;0.93;;
40555;SDS011;26250;45.422;11.100;2023-01-23T15:34:26;1.13;;;1.00;;
40555;SDS011;26250;45.422;11.100;2023-01-23T15:39:49;1.08;;;1.08;;
40555;SDS011;26250;45.422;11.100;2023-01-23T15:42:23;0.90;;;0.90;;
40555;SDS011;26250;45.422;11.100;2023-01-23T15:44:53;0.88;;;0.88;;
40555;SDS011;26250;45.422;11.100;2023-01-23T15:47:20;0.90;;;0.90;;
40555;SDS011;26250;45.422;11.100;2023-01-23T15:49:47;1.10;;;1.00;;
40555;SDS011;26250;45.422;11.100;2023-01-23T15:54:41;0.90;;;0.90;;
40555;SDS011;26250;45.422;11.100;2023-01-23T15:57:09;2.25;;;1.23;;
40555;SDS011;26250;45.422;11.100;2023-01-23T15:59:38;0.85;;;0.85;;
40555;SDS011;26250;45.422;11.100;2023-01-23T16:02:11;1.20;;;1.10;;
40555;SDS011;26250;45.422;11.100;2023-01-23T16:04:57;0.98;;;0.98;;
40555;SDS011;26250;45.422;11.100;2023-01-23T16:07:30;3.65;;;1.00;;
40555;SDS011;26250;45.422;11.100;2023-01-23T16:10:01;1.40;;;1.00;;
40555;SDS011;26250;45.422;11.100;2023-01-23T16:12:30;0.80;;;0.80;;
40555;SDS011;26250;45.422;11.100;2023-01-23T16:14:58;1.90;;;1.08;;
40555;SDS011;26250;45.422;11.100;2023-01-23T16:17:26;1.20;;;1.10;;
40555;SDS011;26250;45.422;11.100;2023-01-23T16:19:53;1.08;;;1.08;;
40555;SDS011;26250;45.422;11.100;2023-01-23T16:22:24;2.30;;;1.15;;
40555;SDS011;26250;45.422;11.100;2023-01-23T16:24:54;5.68;;;1.10;;
40555;SDS011;26250;45.422;11.100;2023-01-23T16:27:22;1.00;;;1.00;;
40555;SDS011;26250;45.422;11.100;2023-01-23T16:29:53;1.30;;;1.20;;
40555;SDS011;26250;45.422;11.100;2023-01-23T16:32:21;0.90;;;0.90;;
40555;SDS011;26250;45.422;11.100;2023-01-23T16:34:48;1.25;;;1.17;;
40555;SDS011;26250;45.422;11.100;2023-01-23T16:37:15;1.38;;;1.20;;
40555;SDS011;26250;45.422;11.100;2023-01-23T16:39:44;1.05;;;1.05;;
40555;SDS011;26250;45.422;11.100;2023-01-23T16:42:17;0.98;;;0.90;;
40555;SDS011;26250;45.422;11.100;2023-01-23T16:44:47;1.05;;;1.05;;
40555;SDS011;26250;45.422;11.100;2023-01-23T16:47:14;1.52;;;1.42;;
40555;SDS011;26250;45.422;11.100;2023-01-23T16:49:41;1.00;;;1.00;;
40555;SDS011;26250;45.422;11.100;2023-01-23T16:52:18;1.00;;;1.00;;
40555;SDS011;26250;45.422;11.100;2023-01-23T16:54:46;1.10;;;1.10;;
40555;SDS011;26250;45.422;11.100;2023-01-23T16:57:17;1.38;;;0.80;;
40555;SDS011;26250;45.422;11.100;2023-01-23T16:59:46;1.40;;;1.20;;
40555;SDS011;26250;45.422;11.100;2023-01-23T17:02:19;1.33;;;1.23;;
40555;SDS011;26250;45.422;11.100;2023-01-23T17:04:51;1.00;;;1.00;;
40555;SDS011;26250;45.422;11.100;2023-01-23T17:07:18;1.63;;;1.08;;
40555;SDS011;26250;45.422;11.100;2023-01-23T17:09:46;1.20;;;1.20;;
40555;SDS011;26250;45.422;11.100;2023-01-23T17:12:15;1.00;;;1.00;;
40555;SDS011;26250;45.422;11.100;2023-01-23T17:14:46;1.48;;;1.38;;
40555;SDS011;26250;45.422;11.100;2023-01-23T17:17:14;1.33;;;1.20;;
40555;SDS011;26250;45.422;11.100;2023-01-23T17:19:53;1.02;;;1.02;;
40555;SDS011;26250;45.422;11.100;2023-01-23T17:22:22;1.33;;;1.20;;
40555;SDS011;26250;45.422;11.100;2023-01-23T17:24:51;1.35;;;1.20;;
40555;SDS011;26250;45.422;11.100;2023-01-23T17:27:18;1.23;;;1.20;;
40555;SDS011;26250;45.422;11.100;2023-01-23T17:29:44;1.80;;;1.70;;
40555;SDS011;26250;45.422;11.100;2023-01-23T17:32:27;2.53;;;1.33;;
40555;SDS011;26250;45.422;11.100;2023-01-23T17:34:55;1.30;;;1.20;;
40555;SDS011;26250;45.422;11.100;2023-01-23T17:37:22;1.20;;;1.15;;
40555;SDS011;26250;45.422;11.100;2023-01-23T17:39:49;1.50;;;1.30;;
40555;SDS011;26250;45.422;11.100;2023-01-23T17:42:17;1.00;;;1.00;;
40555;SDS011;26250;45.422;11.100;2023-01-23T17:44:44;1.30;;;1.20;;
40555;SDS011;26250;45.422;11.100;2023-01-23T17:47:11;1.10;;;1.10;;
40555;SDS011;26250;45.422;11.100;2023-01-23T17:49:39;1.42;;;1.33;;
40555;SDS011;26250;45.422;11.100;2023-01-23T17:52:08;1.20;;;1.20;;
40555;SDS011;26250;45.422;11.100;2023-01-23T17:54:37;1.45;;;0.95;;
40555;SDS011;26250;45.422;11.100;2023-01-23T17:57:04;1.38;;;1.27;;
40555;SDS011;26250;45.422;11.100;2023-01-23T17:59:30;1.20;;;1.10;;
40555;SDS011;26250;45.422;11.100;2023-01-23T18:01:57;4.03;;;1.23;;
40555;SDS011;26250;45.422;11.100;2023-01-23T18:04:24;1.13;;;1.08;;
40555;SDS011;26250;45.422;11.100;2023-01-23T18:06:51;1.00;;;1.00;;
40555;SDS011;26250;45.422;11.100;2023-01-23T18:09:18;1.30;;;1.20;;
40555;SDS011;26250;45.422;11.100;2023-01-23T18:11:46;1.00;;;1.00;;
40555;SDS011;26250;45.422;11.100;2023-01-23T18:16:47;1.08;;;1.08;;
40555;SDS011;26250;45.422;11.100;2023-01-23T18:19:22;1.00;;;1.00;;
40555;SDS011;26250;45.422;11.100;2023-01-23T18:21:52;1.30;;;1.20;;
40555;SDS011;26250;45.422;11.100;2023-01-23T18:24:22;1.50;;;1.40;;
40555;SDS011;26250;45.422;11.100;2023-01-23T18:35:18;1.73;;;1.63;;
40555;SDS011;26250;45.422;11.100;2023-01-23T18:43:46;2.30;;;1.63;;
40555;SDS011;26250;45.422;11.100;2023-01-23T18:48:47;1.80;;;1.70;;
40555;SDS011;26250;45.422;11.100;2023-01-23T18:59:13;3.40;;;1.98;;
40555;SDS011;26250;45.422;11.100;2023-01-23T19:02:15;2.00;;;1.85;;
40555;SDS011;26250;45.422;11.100;2023-01-23T19:07:18;1.60;;;1.50;;
40555;SDS011;26250;45.422;11.100;2023-01-23T19:09:46;1.65;;;1.38;;
40555;SDS011;26250;45.422;11.100;2023-01-23T19:17:53;1.05;;;1.05;;
40555;SDS011;26250;45.422;11.100;2023-01-23T19:20:45;1.17;;;1.17;;
40555;SDS011;26250;45.422;11.100;2023-01-23T19:23:36;3.40;;;1.33;;
40555;SDS011;26250;45.422;11.100;2023-01-23T19:26:13;0.82;;;0.82;;
40555;SDS011;26250;45.422;11.100;2023-01-23T19:28:41;1.83;;;1.10;;
40555;SDS011;26250;45.422;11.100;2023-01-23T19:31:27;1.50;;;1.02;;
40555;SDS011;26250;45.422;11.100;2023-01-23T19:33:55;3.25;;;1.48;;
40555;SDS011;26250;45.422;11.100;2023-01-23T19:36:24;1.38;;;1.27;;
40555;SDS011;26250;45.422;11.100;2023-01-23T19:38:52;1.45;;;1.35;;
40555;SDS011;26250;45.422;11.100;2023-01-23T19:41:26;1.20;;;1.20;;
40555;SDS011;26250;45.422;11.100;2023-01-23T19:43:56;1.67;;;1.58;;
40555;SDS011;26250;45.422;11.100;2023-01-23T19:46:24;1.38;;;1.27;;
40555;SDS011;26250;45.422;11.100;2023-01-23T19:48:54;1.23;;;1.13;;
40555;SDS011;26250;45.422;11.100;2023-01-23T19:51:23;1.35;;;1.27;;
40555;SDS011;26250;45.422;11.100;2023-01-23T19:53:54;3.38;;;1.55;;
40555;SDS011;26250;45.422;11.100;2023-01-23T19:56:23;1.63;;;1.52;;
40555;SDS011;26250;45.422;11.100;2023-01-23T19:58:50;1.48;;;1.38;;
40555;SDS011;26250;45.422;11.100;2023-01-23T20:01:19;3.35;;;1.70;;
40555;SDS011;26250;45.422;11.100;2023-01-23T20:03:56;1.55;;;1.38;;
40555;SDS011;26250;45.422;11.100;2023-01-23T20:06:23;1.63;;;1.40;;
40555;SDS011;26250;45.422;11.100;2023-01-23T20:08:50;2.22;;;1.50;;
40555;SDS011;26250;45.422;11.100;2023-01-23T20:11:17;1.63;;;1.52;;
40555;SDS011;26250;45.422;11.100;2023-01-23T20:13:44;2.00;;;1.90;;
40555;SDS011;26250;45.422;11.100;2023-01-23T20:18:46;1.30;;;1.20;;
40555;SDS011;26250;45.422;11.100;2023-01-23T20:21:15;1.77;;;1.67;;
40555;SDS011;26250;45.422;11.100;2023-01-23T20:23:43;2.05;;;1.60;;
40555;SDS011;26250;45.422;11.100;2023-01-23T20:26:13;1.67;;;1.58;;
40555;SDS011;26250;45.422;11.100;2023-01-23T20:28:41;1.58;;;1.35;;
40555;SDS011;26250;45.422;11.100;2023-01-23T20:31:09;1.20;;;1.20;;
40555;SDS011;26250;45.422;11.100;2023-01-23T20:33:37;1.73;;;1.63;;
40555;SDS011;26250;45.422;11.100;2023-01-23T20:36:06;1.48;;;1.38;;
40555;SDS011;26250;45.422;11.100;2023-01-23T20:38:36;4.93;;;1.25;;
40555;SDS011;26250;45.422;11.100;2023-01-23T20:41:06;1.50;;;1.40;;
40555;SDS011;26250;45.422;11.100;2023-01-23T20:43:35;2.15;;;1.45;;
40555;SDS011;26250;45.422;11.100;2023-01-23T20:46:05;1.73;;;1.63;;
40555;SDS011;26250;45.422;11.100;2023-01-23T20:48:33;3.65;;;1.40;;
40555;SDS011;26250;45.422;11.100;2023-01-23T20:51:01;1.48;;;1.38;;
40555;SDS011;26250;45.422;11.100;2023-01-23T20:53:46;1.40;;;1.30;;
40555;SDS011;26250;45.422;11.100;2023-01-23T20:56:17;1.67;;;1.58;;
40555;SDS011;26250;45.422;11.100;2023-01-23T20:58:47;1.80;;;1.70;;
40555;SDS011;26250;45.422;11.100;2023-01-23T21:01:34;1.63;;;1.52;;
40555;SDS011;26250;45.422;11.100;2023-01-23T21:04:22;1.48;;;1.38;;
40555;SDS011;26250;45.422;11.100;2023-01-23T21:06:51;2.15;;;1.70;;
40555;SDS011;26250;45.422;11.100;2023-01-23T21:09:18;1.60;;;1.50;;
40555;SDS011;26250;45.422;11.100;2023-01-23T21:11:45;8.80;;;1.92;;
40555;SDS011;26250;45.422;11.100;2023-01-23T21:14:12;3.60;;;1.75;;
40555;SDS011;26250;45.422;11.100;2023-01-23T21:16:39;1.98;;;1.77;;
40555;SDS011;26250;45.422;11.100;2023-01-23T21:19:05;3.33;;;1.75;;
40555;SDS011;26250;45.422;11.100;2023-01-23T21:21:32;2.47;;;2.28;;
40555;SDS011;26250;45.422;11.100;2023-01-23T21:24:00;1.40;;;1.40;;
40555;SDS011;26250;45.422;11.100;2023-01-23T21:26:27;1.70;;;1.60;;
40555;SDS011;26250;45.422;11.100;2023-01-23T21:28:55;1.25;;;1.23;;
40555;SDS011;26250;45.422;11.100;2023-01-23T21:33:50;1.55;;;1.45;;
40555;SDS011;26250;45.422;11.100;2023-01-23T21:36:19;1.48;;;1.38;;
40555;SDS011;26250;45.422;11.100;2023-01-23T21:38:48;1.92;;;1.73;;
40555;SDS011;26250;45.422;11.100;2023-01-23T21:41:17;2.72;;;1.90;;
40555;SDS011;26250;45.422;11.100;2023-01-23T21:43:44;1.35;;;1.30;;
40555;SDS011;26250;45.422;11.100;2023-01-23T21:46:11;1.58;;;1.48;;
40555;SDS011;26250;45.422;11.100;2023-01-23T21:48:39;1.90;;;1.80;;
40555;SDS011;26250;45.422;11.100;2023-01-23T21:51:07;2.17;;;1.90;;
40555;SDS011;26250;45.422;11.100;2023-01-23T21:53:45;1.58;;;1.48;;
40555;SDS011;26250;45.422;11.100;2023-01-23T21:56:14;2.67;;;2.03;;
40555;SDS011;26250;45.422;11.100;2023-01-23T21:58:42;1.52;;;1.42;;
40555;SDS011;26250;45.422;11.100;2023-01-23T22:01:13;1.42;;;1.33;;
